createdAt,value
2018-07-08T00:00:24.225Z,47.45
2018-07-08T00:01:24.241Z,47.51
2018-07-08T00:02:24.254Z,47.38
2018-07-08T00:03:24.246Z,47.6
2018-07-08T00:04:24.300Z,47.43
2018-07-08T00:05:24.245Z,47.67
2018-07-08T00:06:24.257Z,47.64
2018-07-08T00:07:24.327Z,47.57
2018-07-08T00:08:24.239Z,47.79
2018-07-08T00:09:24.349Z,47.66
2018-07-08T00:10:24.283Z,47.5
2018-07-08T00:11:24.260Z,47.72
2018-07-08T00:12:24.223Z,47.79
2018-07-08T00:13:24.275Z,47.52
2018-07-08T00:14:24.220Z,47.73
2018-07-08T00:15:24.241Z,47.66
2018-07-08T00:16:24.325Z,47.38
2018-07-08T00:17:24.203Z,47.95
2018-07-08T00:18:24.258Z,48.06
2018-07-08T00:19:24.212Z,48.06
2018-07-08T00:20:24.325Z,48.24
2018-07-08T00:21:24.428Z,48.09
2018-07-08T00:22:24.203Z,48.33
2018-07-08T00:23:24.195Z,48.3
2018-07-08T00:24:24.273Z,48.57
2018-07-08T00:25:24.293Z,48.67
2018-07-08T00:26:24.221Z,48.67
2018-07-08T00:27:24.295Z,48.2
2018-07-08T00:28:24.228Z,48.76
2018-07-08T00:29:24.399Z,48.79
2018-07-08T00:30:24.240Z,48.44
2018-07-08T00:31:24.222Z,49
2018-07-08T00:32:24.203Z,48.76
2018-07-08T00:33:24.236Z,48.63
2018-07-08T00:34:24.213Z,48.61
2018-07-08T00:35:24.216Z,48.9
2018-07-08T00:36:24.217Z,48.85
2018-07-08T00:37:24.221Z,48.73
2018-07-08T00:38:24.212Z,48.66
2018-07-08T00:39:24.228Z,49.07
2018-07-08T00:40:24.252Z,49.02
2018-07-08T00:41:24.223Z,49.1
2018-07-08T00:42:24.216Z,49.04
2018-07-08T00:43:24.203Z,48.95
2018-07-08T00:44:24.231Z,49.04
2018-07-08T00:45:24.219Z,48.9
2018-07-08T00:46:24.209Z,49.15
2018-07-08T00:47:24.242Z,49.41
2018-07-08T00:48:24.205Z,49.81
2018-07-08T00:49:24.225Z,49.75
2018-07-08T00:50:24.217Z,50.34
2018-07-08T00:51:24.300Z,50.21
2018-07-08T00:52:24.224Z,50.01
2018-07-08T00:53:24.207Z,50.66
2018-07-08T00:54:24.203Z,50.53
2018-07-08T00:55:24.208Z,50.12
2018-07-08T00:56:24.208Z,49.84
2018-07-08T00:57:24.318Z,50.18
2018-07-08T00:58:24.210Z,50.37
2018-07-08T00:59:24.212Z,50.33
2018-07-08T01:00:24.360Z,50.3
2018-07-08T01:01:24.986Z,50.58
2018-07-08T01:02:24.358Z,50.44
2018-07-08T01:03:24.200Z,50.47
2018-07-08T01:04:24.208Z,50.1
2018-07-08T01:05:24.267Z,50.23
2018-07-08T01:06:24.219Z,49.87
2018-07-08T01:07:24.422Z,50.2
2018-07-08T01:08:24.218Z,50.07
2018-07-08T01:09:24.220Z,50.41
2018-07-08T01:10:24.208Z,50.74
2018-07-08T01:11:24.266Z,50.06
2018-07-08T01:12:24.210Z,50.72
2018-07-08T01:13:24.309Z,50.3
2018-07-08T01:14:24.190Z,50.26
2018-07-08T01:15:24.216Z,50.81
2018-07-08T01:16:24.224Z,50.41
2018-07-08T01:17:24.264Z,50.7
2018-07-08T01:18:24.225Z,50.9
2018-07-08T01:19:24.193Z,50.86
2018-07-08T01:20:24.189Z,50.98
2018-07-08T01:21:24.222Z,50.6
2018-07-08T01:22:24.226Z,50.63
2018-07-08T01:23:24.192Z,50.78
2018-07-08T01:24:24.198Z,50.73
2018-07-08T01:25:24.411Z,50.96
2018-07-08T01:26:24.225Z,51.04
2018-07-08T01:27:24.305Z,51
2018-07-08T01:28:24.229Z,51.24
2018-07-08T01:29:24.241Z,50.97
2018-07-08T01:30:24.270Z,51.25
2018-07-08T01:31:24.242Z,51.1
2018-07-08T01:32:24.194Z,51.31
2018-07-08T01:33:24.561Z,51.27
2018-07-08T01:34:24.197Z,51.17
2018-07-08T01:35:24.386Z,50.99
2018-07-08T01:36:24.192Z,51.35
2018-07-08T01:37:24.197Z,50.77
2018-07-08T01:38:24.410Z,51.46
2018-07-08T01:39:24.210Z,51.46
2018-07-08T01:40:24.204Z,51.71
2018-07-08T01:41:24.242Z,52.34
2018-07-08T01:42:24.207Z,52.41
2018-07-08T01:43:24.183Z,51.87
2018-07-08T01:44:24.245Z,51.67
2018-07-08T01:45:24.190Z,51.89
2018-07-08T01:46:24.186Z,52.04
2018-07-08T01:47:24.205Z,52.04
2018-07-08T01:48:24.202Z,52.32
2018-07-08T01:49:24.202Z,52.64
2018-07-08T01:50:24.218Z,52.67
2018-07-08T01:51:24.189Z,52.64
2018-07-08T01:52:24.193Z,52.52
2018-07-08T01:53:24.398Z,52.66
2018-07-08T01:54:24.199Z,52.85
2018-07-08T01:55:24.181Z,52.46
2018-07-08T01:56:24.192Z,52.78
2018-07-08T01:57:24.181Z,53.06
2018-07-08T01:58:24.193Z,52.98
2018-07-08T01:59:24.220Z,53.2
2018-07-08T02:00:24.210Z,53.42
2018-07-08T02:01:24.237Z,53.23
2018-07-08T02:02:24.180Z,53.53
2018-07-08T02:03:24.218Z,53.66
2018-07-08T02:04:24.258Z,53.42
2018-07-08T02:05:24.203Z,53.54
2018-07-08T02:06:24.192Z,53.36
2018-07-08T02:07:24.217Z,53.69
2018-07-08T02:08:24.187Z,53.86
2018-07-08T02:09:24.212Z,53.8
2018-07-08T02:10:24.241Z,53.78
2018-07-08T02:11:24.371Z,53.9
2018-07-08T02:12:24.549Z,53.9
2018-07-08T02:13:24.183Z,53.36
2018-07-08T02:14:24.177Z,54.15
2018-07-08T02:15:24.240Z,54
2018-07-08T02:16:24.196Z,54.3
2018-07-08T02:17:24.467Z,53.67
2018-07-08T02:18:24.189Z,54.1
2018-07-08T02:19:24.195Z,54.1
2018-07-08T02:20:24.221Z,53.74
2018-07-08T02:21:24.261Z,54.11
2018-07-08T02:22:24.196Z,53.93
2018-07-08T02:23:24.174Z,54.32
2018-07-08T02:24:24.233Z,54.27
2018-07-08T02:25:24.393Z,54.14
2018-07-08T02:26:24.395Z,54.12
2018-07-08T02:27:24.185Z,54.09
2018-07-08T02:28:24.430Z,53.93
2018-07-08T02:29:24.227Z,53.82
2018-07-08T02:30:24.249Z,54.35
2018-07-08T02:31:24.217Z,54.61
2018-07-08T02:32:24.238Z,54.44
2018-07-08T02:33:24.171Z,54.35
2018-07-08T02:34:24.278Z,54.53
2018-07-08T02:35:24.184Z,55.1
2018-07-08T02:36:24.195Z,54.57
2018-07-08T02:37:24.183Z,55.32
2018-07-08T02:38:24.243Z,55.16
2018-07-08T02:39:24.179Z,55.03
2018-07-08T02:40:24.178Z,55.11
2018-07-08T02:41:24.239Z,55.07
2018-07-08T02:42:24.161Z,54.74
2018-07-08T02:43:24.243Z,55.12
2018-07-08T02:44:24.205Z,55.85
2018-07-08T02:45:24.241Z,55.5
2018-07-08T02:46:24.174Z,55.8
2018-07-08T02:47:24.169Z,55.92
2018-07-08T02:48:24.168Z,55.92
2018-07-08T02:49:24.181Z,56.06
2018-07-08T02:50:24.217Z,55.82
2018-07-08T02:51:24.199Z,56.06
2018-07-08T02:52:24.297Z,55.79
2018-07-08T02:53:26.451Z,55.86
2018-07-08T02:54:24.177Z,56.37
2018-07-08T02:55:24.243Z,56.69
2018-07-08T02:56:24.387Z,56.42
2018-07-08T02:57:24.160Z,56.43
2018-07-08T02:58:24.169Z,56.13
2018-07-08T02:59:24.161Z,56.28
2018-07-08T03:00:24.183Z,56.42
2018-07-08T03:01:24.179Z,56.4
2018-07-08T03:02:24.171Z,56.3
2018-07-08T03:03:24.163Z,56.36
2018-07-08T03:04:24.188Z,56.08
2018-07-08T03:05:24.202Z,56.22
2018-07-08T03:06:24.179Z,56.45
2018-07-08T03:07:24.165Z,56.67
2018-07-08T03:08:24.152Z,56.9
2018-07-08T03:09:24.190Z,56.74
2018-07-08T03:10:24.211Z,56.66
2018-07-08T03:11:24.174Z,57.03
2018-07-08T03:12:24.209Z,56.42
2018-07-08T03:13:24.191Z,57.03
2018-07-08T03:14:24.165Z,57.13
2018-07-08T03:15:24.172Z,56.85
2018-07-08T03:16:24.194Z,56.21
2018-07-08T03:17:24.218Z,56.41
2018-07-08T03:18:24.165Z,57.09
2018-07-08T03:19:24.180Z,56.59
2018-07-08T03:20:24.156Z,56.72
2018-07-08T03:21:24.187Z,56.66
2018-07-08T03:22:24.145Z,57.08
2018-07-08T03:23:24.201Z,57.27
2018-07-08T03:24:24.221Z,57.18
2018-07-08T03:25:24.149Z,57.12
2018-07-08T03:26:24.207Z,57.03
2018-07-08T03:27:24.163Z,57.36
2018-07-08T03:28:24.184Z,57.33
2018-07-08T03:29:24.480Z,57.52
2018-07-08T03:30:24.172Z,57.46
2018-07-08T03:31:24.218Z,57.35
2018-07-08T03:32:24.181Z,57.16
2018-07-08T03:33:24.262Z,57.15
2018-07-08T03:34:24.185Z,57.78
2018-07-08T03:35:24.168Z,57.32
2018-07-08T03:36:24.166Z,57.62
2018-07-08T03:37:24.169Z,57.11
2018-07-08T03:38:24.167Z,57.1
2018-07-08T03:39:24.193Z,56.86
2018-07-08T03:40:24.441Z,56.58
2018-07-08T03:41:24.162Z,57.32
2018-07-08T03:42:24.163Z,57.71
2018-07-08T03:43:24.174Z,57.91
2018-07-08T03:44:24.265Z,58.05
2018-07-08T03:45:24.293Z,58.58
2018-07-08T03:46:24.198Z,59.12
2018-07-08T03:47:24.240Z,59.04
2018-07-08T03:48:24.177Z,59.19
2018-07-08T03:49:24.202Z,59.29
2018-07-08T03:50:24.223Z,59.29
2018-07-08T03:51:24.203Z,59.37
2018-07-08T03:52:24.222Z,59.78
2018-07-08T03:53:24.176Z,59.52
2018-07-08T03:54:24.188Z,59.47
2018-07-08T03:55:24.154Z,59.67
2018-07-08T03:56:24.197Z,59.39
2018-07-08T03:57:24.244Z,59.3
2018-07-08T03:58:24.164Z,59.65
2018-07-08T03:59:24.207Z,59.6
2018-07-08T04:00:24.171Z,59.54
2018-07-08T04:01:24.207Z,59.26
2018-07-08T04:02:24.146Z,59.22
2018-07-08T04:03:24.284Z,58.83
2018-07-08T04:04:24.159Z,59.35
2018-07-08T04:05:24.125Z,59.53
2018-07-08T04:06:24.321Z,59
2018-07-08T04:07:24.219Z,59.07
2018-07-08T04:08:24.178Z,59
2018-07-08T04:09:24.186Z,59.16
2018-07-08T04:10:24.154Z,59.18
2018-07-08T04:11:24.218Z,58.71
2018-07-08T04:12:24.158Z,58.48
2018-07-08T04:13:24.190Z,59.29
2018-07-08T04:14:24.226Z,58.6
2018-07-08T04:15:24.139Z,58.87
2018-07-08T04:16:24.146Z,59.07
2018-07-08T04:17:24.177Z,58.76
2018-07-08T04:18:24.145Z,58.66
2018-07-08T04:19:24.169Z,59.29
2018-07-08T04:20:24.145Z,58.76
2018-07-08T04:21:24.185Z,59.17
2018-07-08T04:22:24.175Z,59.3
2018-07-08T04:23:24.147Z,58.48
2018-07-08T04:24:24.138Z,59.08
2018-07-08T04:25:24.228Z,59.44
2018-07-08T04:26:24.175Z,59.28
2018-07-08T04:27:24.157Z,59.19
2018-07-08T04:28:24.181Z,59.21
2018-07-08T04:29:24.151Z,59.73
2018-07-08T04:30:24.214Z,59.58
2018-07-08T04:31:24.133Z,59.36
2018-07-08T04:32:24.123Z,59.71
2018-07-08T04:33:24.150Z,59.17
2018-07-08T04:34:24.120Z,59.41
2018-07-08T04:35:24.134Z,59.41
2018-07-08T04:36:24.132Z,59.78
2018-07-08T04:37:24.126Z,59.69
2018-07-08T04:38:24.132Z,59.79
2018-07-08T04:39:24.167Z,59.65
2018-07-08T04:40:24.144Z,59.86
2018-07-08T04:41:24.303Z,60.1
2018-07-08T04:42:24.135Z,60.45
2018-07-08T04:43:24.163Z,60.15
2018-07-08T04:44:24.154Z,60.53
2018-07-08T04:45:24.131Z,60.25
2018-07-08T04:46:24.200Z,60.35
2018-07-08T04:47:24.139Z,60.58
2018-07-08T04:48:24.138Z,60.85
2018-07-08T04:49:24.191Z,60.73
2018-07-08T04:50:24.121Z,61.36
2018-07-08T04:51:24.133Z,61.36
2018-07-08T04:52:24.123Z,60.69
2018-07-08T04:53:24.299Z,60.82
2018-07-08T04:54:24.241Z,60.62
2018-07-08T04:55:24.117Z,60.75
2018-07-08T04:56:24.177Z,60.52
2018-07-08T04:57:24.143Z,60.72
2018-07-08T04:58:24.135Z,61.15
2018-07-08T04:59:24.200Z,61.41
2018-07-08T05:00:24.247Z,61.35
2018-07-08T05:01:24.198Z,61.69
2018-07-08T05:02:24.174Z,61.36
2018-07-08T05:03:24.160Z,61.11
2018-07-08T05:04:24.325Z,61.5
2018-07-08T05:05:24.144Z,60.85
2018-07-08T05:06:24.237Z,61.07
2018-07-08T05:07:24.132Z,61.05
2018-07-08T05:08:24.131Z,61.01
2018-07-08T05:09:24.124Z,61.35
2018-07-08T05:10:24.280Z,60.91
2018-07-08T05:11:24.133Z,60.96
2018-07-08T05:12:24.121Z,61.26
2018-07-08T05:13:24.130Z,61.31
2018-07-08T05:14:24.132Z,61.2
2018-07-08T05:15:24.153Z,61.19
2018-07-08T05:16:24.169Z,61.1
2018-07-08T05:17:24.159Z,60.79
2018-07-08T05:18:24.149Z,60.54
2018-07-08T05:19:24.205Z,60.5
2018-07-08T05:20:24.174Z,60.48
2018-07-08T05:21:24.149Z,60.45
2018-07-08T05:22:24.133Z,60.51
2018-07-08T05:23:24.158Z,60.99
2018-07-08T05:24:24.126Z,61.3
2018-07-08T05:25:24.414Z,60.97
2018-07-08T05:26:24.142Z,60.82
2018-07-08T05:27:24.148Z,60.96
2018-07-08T05:28:24.095Z,60.85
2018-07-08T05:29:24.147Z,60.65
2018-07-08T05:30:24.147Z,60.69
2018-07-08T05:31:24.157Z,60.63
2018-07-08T05:32:24.900Z,60.63
2018-07-08T05:33:24.231Z,61.01
2018-07-08T05:34:24.128Z,60.58
2018-07-08T05:35:24.367Z,60.1
2018-07-08T05:36:24.113Z,60.39
2018-07-08T05:37:24.130Z,60.16
2018-07-08T05:38:24.104Z,59.9
2018-07-08T05:39:24.150Z,60.07
2018-07-08T05:40:24.140Z,60.2
2018-07-08T05:41:24.145Z,60.23
2018-07-08T05:42:24.136Z,60.16
2018-07-08T05:43:24.094Z,59.93
2018-07-08T05:44:24.148Z,60.04
2018-07-08T05:45:24.153Z,59.98
2018-07-08T05:46:24.121Z,59.87
2018-07-08T05:47:24.114Z,59.46
2018-07-08T05:48:24.148Z,59.63
2018-07-08T05:49:24.099Z,59.9
2018-07-08T05:50:24.185Z,59.65
2018-07-08T05:51:24.297Z,59.59
2018-07-08T05:52:24.100Z,59.24
2018-07-08T05:53:24.125Z,59.04
2018-07-08T05:54:24.112Z,59.23
2018-07-08T05:55:24.158Z,58.92
2018-07-08T05:56:24.092Z,58.91
2018-07-08T05:57:24.095Z,59.1
2018-07-08T05:58:24.130Z,58.75
2018-07-08T05:59:24.140Z,58.67
2018-07-08T06:00:24.112Z,58.6
2018-07-08T06:01:24.259Z,58.84
2018-07-08T06:02:24.118Z,58.72
2018-07-08T06:03:24.104Z,58.71
2018-07-08T06:04:24.125Z,58.51
2018-07-08T06:05:24.154Z,58.37
2018-07-08T06:06:24.115Z,58.13
2018-07-08T06:07:24.106Z,58.52
2018-07-08T06:08:24.207Z,58.18
2018-07-08T06:09:24.224Z,58.09
2018-07-08T06:10:24.428Z,58.21
2018-07-08T06:11:24.120Z,58.1
2018-07-08T06:12:24.111Z,57.61
2018-07-08T06:13:24.120Z,57.59
2018-07-08T06:14:24.094Z,57.74
2018-07-08T06:15:24.140Z,57.71
2018-07-08T06:16:24.201Z,57.59
2018-07-08T06:17:24.089Z,57.5
2018-07-08T06:18:24.086Z,57.67
2018-07-08T06:19:24.119Z,57.7
2018-07-08T06:20:24.168Z,56.82
2018-07-08T06:21:24.088Z,56.47
2018-07-08T06:22:24.286Z,56.33
2018-07-08T06:23:24.260Z,56.46
2018-07-08T06:24:24.097Z,56.35
2018-07-08T06:25:24.082Z,55.96
2018-07-08T06:26:24.189Z,55.85
2018-07-08T06:27:24.094Z,55.54
2018-07-08T06:28:24.126Z,55.21
2018-07-08T06:29:24.189Z,55.39
2018-07-08T06:30:24.095Z,54.98
2018-07-08T06:31:24.121Z,54.72
2018-07-08T06:32:24.089Z,54.81
2018-07-08T06:33:24.099Z,55.2
2018-07-08T06:34:24.105Z,54.6
2018-07-08T06:35:24.282Z,54.67
2018-07-08T06:36:24.488Z,55.02
2018-07-08T06:37:24.122Z,54.29
2018-07-08T06:38:24.089Z,54.71
2018-07-08T06:39:24.113Z,54.48
2018-07-08T06:40:24.109Z,54.07
2018-07-08T06:41:24.093Z,53.81
2018-07-08T06:42:24.098Z,53.15
2018-07-08T06:43:24.178Z,53.25
2018-07-08T06:44:24.091Z,53.27
2018-07-08T06:45:24.099Z,53.45
2018-07-08T06:46:24.337Z,53.19
2018-07-08T06:47:24.099Z,53.35
2018-07-08T06:48:24.102Z,52.98
2018-07-08T06:49:24.076Z,52.66
2018-07-08T06:50:24.203Z,52.49
2018-07-08T06:51:24.105Z,52.93
2018-07-08T06:52:24.103Z,52.56
2018-07-08T06:53:24.137Z,52.85
2018-07-08T06:54:24.106Z,52.99
2018-07-08T06:55:24.077Z,52.49
2018-07-08T06:56:24.097Z,51.77
2018-07-08T06:57:24.114Z,51.94
2018-07-08T06:58:24.089Z,51.96
2018-07-08T06:59:24.062Z,51.92
2018-07-08T07:00:24.082Z,51.55
2018-07-08T07:01:24.090Z,51.31
2018-07-08T07:02:24.080Z,51.26
2018-07-08T07:03:24.081Z,51.54
2018-07-08T07:04:24.142Z,51.46
2018-07-08T07:05:24.103Z,51.58
2018-07-08T07:06:24.395Z,51.8
2018-07-08T07:07:24.089Z,51.8
2018-07-08T07:08:24.098Z,51.81
2018-07-08T07:09:24.079Z,51.56
2018-07-08T07:10:24.083Z,51.57
2018-07-08T07:11:24.125Z,51.36
2018-07-08T07:12:24.076Z,51.13
2018-07-08T07:13:24.090Z,50.54
2018-07-08T07:14:24.099Z,50.36
2018-07-08T07:15:24.077Z,50.93
2018-07-08T07:16:24.363Z,49.07
2018-07-08T07:17:24.134Z,49.26
2018-07-08T07:18:24.109Z,49.25
2018-07-08T07:19:24.083Z,49.07
2018-07-08T07:20:24.104Z,48.66
2018-07-08T07:21:24.102Z,48.2
2018-07-08T07:22:24.130Z,47.88
2018-07-08T07:23:24.167Z,48.13
2018-07-08T07:24:24.160Z,48.28
2018-07-08T07:25:24.073Z,48.11
2018-07-08T07:26:24.266Z,48.04
2018-07-08T07:27:24.074Z,48.63
2018-07-08T07:28:24.229Z,48.09
2018-07-08T07:29:24.102Z,48.61
2018-07-08T07:30:24.098Z,48.15
2018-07-08T07:31:24.115Z,48.09
2018-07-08T07:32:24.133Z,48.39
2018-07-08T07:33:24.100Z,47.99
2018-07-08T07:34:24.076Z,47.55
2018-07-08T07:35:24.103Z,47.43
2018-07-08T07:36:24.151Z,47.49
2018-07-08T07:37:24.104Z,47.74
2018-07-08T07:38:24.208Z,47.38
2018-07-08T07:39:24.272Z,47.23
2018-07-08T07:40:24.073Z,47.52
2018-07-08T07:41:24.228Z,47.15
2018-07-08T07:42:24.055Z,47.1
2018-07-08T07:43:24.350Z,46.62
2018-07-08T07:44:24.189Z,46.82
2018-07-08T07:45:24.164Z,47.04
2018-07-08T07:46:24.369Z,47.01
2018-07-08T07:47:24.279Z,46.98
2018-07-08T07:48:24.276Z,46.97
2018-07-08T07:49:24.385Z,46.88
2018-07-08T07:50:25.218Z,45.96
2018-07-08T07:51:24.059Z,45.11
2018-07-08T07:52:24.208Z,45.46
2018-07-08T07:53:24.103Z,45.35
2018-07-08T07:54:24.218Z,45.33
2018-07-08T07:55:24.208Z,45.75
2018-07-08T07:56:24.231Z,45.64
2018-07-08T07:57:24.241Z,45.5
2018-07-08T07:58:24.241Z,45.33
2018-07-08T07:59:24.249Z,44.97
2018-07-08T08:00:24.161Z,45.23
2018-07-08T08:01:24.165Z,44.69
2018-07-08T08:02:24.276Z,44.92
2018-07-08T08:03:24.277Z,44.86
2018-07-08T08:04:24.286Z,44.7
2018-07-08T08:05:24.086Z,44.1
2018-07-08T08:06:24.197Z,44.02
2018-07-08T08:07:24.098Z,44.05
2018-07-08T08:08:24.289Z,44.35
2018-07-08T08:09:24.216Z,44.02
2018-07-08T08:10:24.064Z,43.75
2018-07-08T08:11:24.129Z,43.06
2018-07-08T08:12:24.237Z,43.13
2018-07-08T08:13:24.242Z,43.29
2018-07-08T08:14:24.252Z,42.61
2018-07-08T08:15:24.257Z,42.75
2018-07-08T08:16:24.277Z,43.26
2018-07-08T08:17:24.168Z,43.21
2018-07-08T08:18:24.291Z,42.74
2018-07-08T08:19:24.191Z,41.52
2018-07-08T08:20:24.080Z,42.61
2018-07-08T08:21:24.068Z,43.02
2018-07-08T08:22:24.224Z,43.01
2018-07-08T08:23:24.210Z,42.67
2018-07-08T08:24:24.072Z,42.66
2018-07-08T08:25:24.122Z,42.38
2018-07-08T08:26:24.403Z,42.41
2018-07-08T08:27:24.163Z,41.79
2018-07-08T08:28:24.053Z,41.52
2018-07-08T08:29:24.103Z,41
2018-07-08T08:30:24.122Z,41.4
2018-07-08T08:31:24.174Z,41.21
2018-07-08T08:32:24.383Z,40.92
2018-07-08T08:33:24.091Z,40.29
2018-07-08T08:34:24.066Z,40.24
2018-07-08T08:35:24.191Z,39.07
2018-07-08T08:36:24.171Z,38.59
2018-07-08T08:37:24.316Z,38.26
2018-07-08T08:38:24.159Z,38.89
2018-07-08T08:39:24.328Z,37.93
2018-07-08T08:40:24.087Z,38.29
2018-07-08T08:41:24.052Z,38.86
2018-07-08T08:42:24.241Z,38.6
2018-07-08T08:43:24.058Z,38.84
2018-07-08T08:44:24.257Z,38.3
2018-07-08T08:45:24.071Z,38.87
2018-07-08T08:46:24.137Z,39.09
2018-07-08T08:47:24.088Z,38.58
2018-07-08T08:48:24.180Z,38.23
2018-07-08T08:49:24.055Z,38.25
2018-07-08T08:50:24.200Z,38.27
2018-07-08T08:51:24.085Z,38.93
2018-07-08T08:52:24.116Z,38.61
2018-07-08T08:53:24.083Z,38.81
2018-07-08T08:54:24.097Z,39.31
2018-07-08T08:55:24.483Z,39.55
2018-07-08T08:56:24.251Z,39.14
2018-07-08T08:57:24.475Z,39.34
2018-07-08T08:58:24.068Z,39.39
2018-07-08T08:59:24.217Z,39.44
2018-07-08T09:00:24.065Z,39.73
2018-07-08T09:01:24.079Z,39.2
2018-07-08T09:02:24.167Z,39.49
2018-07-08T09:03:24.161Z,39.06
2018-07-08T09:04:24.053Z,38.9
2018-07-08T09:05:24.088Z,39.43
2018-07-08T09:06:24.063Z,39.62
2018-07-08T09:07:24.031Z,40.04
2018-07-08T09:08:24.097Z,40.15
2018-07-08T09:09:24.104Z,40.19
2018-07-08T09:10:24.054Z,39.74
2018-07-08T09:11:24.071Z,39.63
2018-07-08T09:12:24.091Z,39.51
2018-07-08T09:13:24.039Z,39.45
2018-07-08T09:14:24.066Z,39.66
2018-07-08T09:15:24.070Z,39.77
2018-07-08T09:16:24.187Z,39.67
2018-07-08T09:17:24.137Z,39.48
2018-07-08T09:18:24.181Z,39.64
2018-07-08T09:19:24.051Z,39.79
2018-07-08T09:20:24.131Z,39.95
2018-07-08T09:21:24.098Z,39.74
2018-07-08T09:22:24.089Z,40.18
2018-07-08T09:23:24.142Z,40.02
2018-07-08T09:24:24.118Z,39.91
2018-07-08T09:25:24.039Z,40.24
2018-07-08T09:26:24.131Z,40.67
2018-07-08T09:27:24.052Z,40.54
2018-07-08T09:28:24.078Z,40.91
2018-07-08T09:29:24.161Z,40.79
2018-07-08T09:30:24.054Z,40.89
2018-07-08T09:31:24.039Z,40.71
2018-07-08T09:32:24.092Z,40.32
2018-07-08T09:33:24.061Z,40.29
2018-07-08T09:34:24.104Z,40.49
2018-07-08T09:35:24.076Z,40.21
2018-07-08T09:36:24.128Z,40.13
2018-07-08T09:37:24.027Z,40.28
2018-07-08T09:38:24.062Z,40.63
2018-07-08T09:39:24.107Z,40.39
2018-07-08T09:40:24.045Z,40.56
2018-07-08T09:41:24.259Z,40.3
2018-07-08T09:42:24.056Z,40.22
2018-07-08T09:43:24.045Z,40.48
2018-07-08T09:44:24.053Z,40.52
2018-07-08T09:45:24.040Z,40.06
2018-07-08T09:46:24.064Z,40.51
2018-07-08T09:47:24.069Z,39.89
2018-07-08T09:48:24.758Z,39.96
2018-07-08T09:49:24.054Z,40.08
2018-07-08T09:50:24.194Z,39.74
2018-07-08T09:51:24.026Z,39.96
2018-07-08T09:52:24.078Z,39.89
2018-07-08T09:53:24.639Z,40.01
2018-07-08T09:54:24.241Z,39.58
2018-07-08T09:55:24.514Z,39.67
2018-07-08T09:56:24.354Z,39.58
2018-07-08T09:57:24.036Z,39.23
2018-07-08T09:58:24.066Z,39.42
2018-07-08T09:59:24.050Z,39.46
2018-07-08T10:00:24.176Z,39.42
2018-07-08T10:01:24.060Z,39.26
2018-07-08T10:02:24.094Z,39.69
2018-07-08T10:03:24.040Z,39.81
2018-07-08T10:04:24.035Z,39.9
2018-07-08T10:05:24.030Z,39.8
2018-07-08T10:06:24.051Z,39.83
2018-07-08T10:07:24.025Z,39.82
2018-07-08T10:08:24.046Z,39.89
2018-07-08T10:09:24.041Z,40.07
2018-07-08T10:10:24.402Z,39.97
2018-07-08T10:11:24.244Z,39.98
2018-07-08T10:12:24.071Z,39.98
2018-07-08T10:13:24.029Z,39.98
2018-07-08T10:14:24.048Z,39.96
2018-07-08T10:15:24.024Z,40.06
2018-07-08T10:16:24.327Z,40.21
2018-07-08T10:17:24.116Z,40.31
2018-07-08T10:18:24.030Z,40.08
2018-07-08T10:19:24.100Z,39.97
2018-07-08T10:20:24.302Z,39.93
2018-07-08T10:21:24.048Z,39.86
2018-07-08T10:22:24.179Z,39.96
2018-07-08T10:23:24.180Z,39.9
2018-07-08T10:24:24.083Z,40.18
2018-07-08T10:25:24.380Z,40.08
2018-07-08T10:26:24.056Z,40.2
2018-07-08T10:27:24.102Z,40.38
2018-07-08T10:28:24.118Z,40.33
2018-07-08T10:29:24.095Z,39.62
2018-07-08T10:30:24.102Z,39.91
2018-07-08T10:31:24.136Z,39.54
2018-07-08T10:32:24.101Z,39.54
2018-07-08T10:33:24.030Z,40.15
2018-07-08T10:34:24.096Z,40.15
2018-07-08T10:35:24.077Z,40
2018-07-08T10:36:24.077Z,40.33
2018-07-08T10:37:24.125Z,40.08
2018-07-08T10:38:25.225Z,39.99
2018-07-08T10:39:24.040Z,40.34
2018-07-08T10:40:24.037Z,39.75
2018-07-08T10:41:24.028Z,39.13
2018-07-08T10:42:24.046Z,38.85
2018-07-08T10:43:25.227Z,38.83
2018-07-08T10:44:24.082Z,38.49
2018-07-08T10:45:24.010Z,38.45
2018-07-08T10:46:24.011Z,38.52
2018-07-08T10:47:24.004Z,38.91
2018-07-08T10:48:24.031Z,38.89
2018-07-08T10:49:24.021Z,38.74
2018-07-08T10:50:24.201Z,38.69
2018-07-08T10:51:24.432Z,39.05
2018-07-08T10:52:24.446Z,39.05
2018-07-08T10:53:24.039Z,38.95
2018-07-08T10:54:24.032Z,39
2018-07-08T10:55:24.264Z,39.29
2018-07-08T10:56:24.024Z,39.23
2018-07-08T10:57:24.010Z,38.67
2018-07-08T10:58:24.033Z,38.5
2018-07-08T10:59:24.162Z,38.59
2018-07-08T11:00:24.206Z,38.29
2018-07-08T11:01:24.016Z,37.66
2018-07-08T11:02:24.255Z,37.78
2018-07-08T11:03:24.014Z,37.65
2018-07-08T11:04:24.168Z,38.02
2018-07-08T11:05:24.028Z,37.92
2018-07-08T11:06:24.113Z,37.77
2018-07-08T11:07:24.019Z,37.44
2018-07-08T11:08:24.234Z,37.63
2018-07-08T11:09:24.111Z,37.79
2018-07-08T11:10:24.165Z,37.88
2018-07-08T11:11:24.089Z,38.11
2018-07-08T11:12:24.058Z,38.55
2018-07-08T11:13:24.050Z,38.5
2018-07-08T11:14:24.042Z,38.54
2018-07-08T11:15:24.470Z,37.65
2018-07-08T11:16:24.065Z,37.46
2018-07-08T11:17:24.041Z,37.22
2018-07-08T11:18:24.050Z,37.53
2018-07-08T11:19:24.015Z,37.46
2018-07-08T11:20:24.039Z,37.56
2018-07-08T11:21:24.031Z,37.5
2018-07-08T11:22:24.123Z,37.53
2018-07-08T11:23:24.252Z,38
2018-07-08T11:24:24.025Z,37.93
2018-07-08T11:25:24.170Z,37.73
2018-07-08T11:26:24.065Z,37.43
2018-07-08T11:27:24.180Z,37.35
2018-07-08T11:28:24.057Z,37.3
2018-07-08T11:29:24.064Z,37.07
2018-07-08T11:30:24.023Z,37.13
2018-07-08T11:31:24.065Z,35.96
2018-07-08T11:32:24.082Z,35.92
2018-07-08T11:33:24.033Z,35.03
2018-07-08T11:34:24.608Z,34.76
2018-07-08T11:35:25.106Z,34.98
2018-07-08T11:36:24.094Z,35.09
2018-07-08T11:37:24.031Z,34.38
2018-07-08T11:38:24.779Z,34.24
2018-07-08T11:39:23.983Z,34.23
2018-07-08T11:40:26.489Z,33.97
2018-07-08T11:41:24.006Z,33.56
2018-07-08T11:42:24.058Z,33.52
2018-07-08T11:43:24.965Z,33.9
2018-07-08T11:44:25.294Z,34.08
2018-07-08T11:45:23.996Z,34.51
2018-07-08T11:46:24.009Z,34.62
2018-07-08T11:47:24.405Z,34.61
2018-07-08T11:48:24.164Z,34.71
2018-07-08T11:49:24.114Z,34.56
2018-07-08T11:50:24.192Z,34.64
2018-07-08T11:51:24.013Z,34.44
2018-07-08T11:52:24.187Z,34.39
2018-07-08T11:53:24.068Z,34.47
2018-07-08T11:54:24.045Z,33.99
2018-07-08T11:55:24.180Z,33.71
2018-07-08T11:56:24.016Z,33.77
2018-07-08T11:57:24.002Z,33.86
2018-07-08T11:58:24.026Z,33.66
2018-07-08T11:59:24.021Z,33.57
2018-07-08T12:00:24.001Z,33.16
2018-07-08T12:01:23.991Z,32.76
2018-07-08T12:02:23.996Z,33.25
2018-07-08T12:03:24.016Z,32.46
2018-07-08T12:04:24.014Z,31.64
2018-07-08T12:05:24.018Z,32.03
2018-07-08T12:06:24.051Z,31.97
2018-07-08T12:07:24.043Z,32.44
2018-07-08T12:08:24.128Z,32.17
2018-07-08T12:09:24.017Z,32.24
2018-07-08T12:10:24.029Z,31.86
2018-07-08T12:11:24.047Z,30.78
2018-07-08T12:12:23.999Z,30.55
2018-07-08T12:13:24.169Z,30.45
2018-07-08T12:14:24.202Z,30.87
2018-07-08T12:15:24.081Z,30.44
2018-07-08T12:16:24.008Z,30.36
2018-07-08T12:17:24.173Z,30.69
2018-07-08T12:18:24.105Z,30.44
2018-07-08T12:19:24.199Z,30.33
2018-07-08T12:20:24.019Z,30.41
2018-07-08T12:21:24.261Z,30.71
2018-07-08T12:22:24.491Z,30.62
2018-07-08T12:23:24.133Z,30.33
2018-07-08T12:24:24.017Z,30.44
2018-07-08T12:25:24.220Z,30.57
2018-07-08T12:26:24.019Z,30.83
2018-07-08T12:27:24.014Z,31.48
2018-07-08T12:28:24.054Z,30.02
2018-07-08T12:29:24.019Z,29.46
2018-07-08T12:30:24.020Z,28.34
2018-07-08T12:31:24.098Z,28.82
2018-07-08T12:32:24.190Z,28.77
2018-07-08T12:33:24.003Z,28.89
2018-07-08T12:34:24.017Z,28.87
2018-07-08T12:35:24.015Z,29.24
2018-07-08T12:36:24.033Z,28.91
2018-07-08T12:37:24.087Z,28.99
2018-07-08T12:38:24.022Z,28.91
2018-07-08T12:39:23.976Z,28.42
2018-07-08T12:40:24.346Z,28.59
2018-07-08T12:41:24.152Z,27.98
2018-07-08T12:42:24.108Z,28.21
2018-07-08T12:43:23.998Z,28.07
2018-07-08T12:44:24.251Z,28.47
2018-07-08T12:45:24.178Z,28.62
2018-07-08T12:46:23.984Z,27.76
2018-07-08T12:47:24.191Z,28.15
2018-07-08T12:48:23.991Z,27.83
2018-07-08T12:49:24.154Z,27.24
2018-07-08T12:50:24.119Z,26.63
2018-07-08T12:51:24.846Z,25.96
2018-07-08T12:52:24.208Z,25.99
2018-07-08T12:53:23.989Z,25.63
2018-07-08T12:54:23.992Z,25.35
2018-07-08T12:55:24.034Z,25.05